Time;durP1;ratioP1;P1;durP2;ratioP2;P2;SDS_P1;SDS_P2;PMS_P1;PMS_P2;Temp;Humidity;BMP_temperature;BMP_pressure;BME280_temperature;BME280_humidity;BME280_pressure;Samples;Min_cycle;Max_cycle;Signal;HPM_P1;HPM_P2
2024/04/11 00:01:25;;;;;;;;;;;;;;;16.24;51.20;101341.16;5495487;26;1270;-53
2024/04/11 00:03:51;;;;;;;;;;;;;;;17.16;49.74;101337.19;5495267;26;1193;-54
2024/04/11 00:06:19;;;;;;;;;;;;;;;17.27;48.94;101327.66;5495504;26;1174;-53
2024/04/11 00:08:44;;;;;;;;;;;;;;;16.65;50.33;101330.66;5519973;26;1818;-51
2024/04/11 00:11:12;;;;;;;;;;;;;;;16.45;50.87;101335.44;5515474;26;1130;-52
2024/04/11 00:13:37;;;;;;;;;;;;;;;16.25;51.07;101334.88;5507668;26;1152;-53
2024/04/11 00:16:04;;;;;;;;;;;;;;;16.11;51.17;101334.88;5531164;26;1186;-53
2024/04/11 00:18:29;;;;;;;;;;;;;;;17.09;49.73;101335.88;5495160;26;1296;-53
2024/04/11 00:20:55;;;;;;;;;;;;;;;17.27;48.76;101339.09;5494609;26;1229;-53
2024/04/11 00:23:21;;;;;;;;;;;;;;;16.59;50.56;101342.53;5499738;26;1268;-55
2024/04/11 00:25:57;;;;;;;;;;;;;;;16.39;50.63;101331.38;5530178;26;1178;-55
2024/04/11 00:28:23;;;;;;;;;;;;;;;16.12;51.10;101339.25;5495012;26;1284;-54
2024/04/11 00:30:48;;;;;;;;;;;;;;;16.02;51.65;101338.94;5491343;26;1848;-52
2024/04/11 00:33:14;;;;;;;;;;;;;;;17.56;48.59;101340.78;5531682;26;1275;-54
2024/04/11 00:35:40;;;;;;;;;;;;;;;17.00;49.58;101331.97;5522137;26;1153;-52
2024/04/11 00:38:10;;;;;;;;;;;;;;;16.50;50.43;101341.31;5495125;26;1157;-54
2024/04/11 00:40:38;;;;;;;;;;;;;;;16.27;50.90;101335.66;5494182;26;1301;-52
2024/04/11 00:43:09;;;;;;;;;;;;;;;16.11;51.04;101345.50;5495081;26;1158;-51
2024/04/11 00:45:38;;;;;;;;;;;;;;;16.21;51.26;101345.78;5524965;26;1158;-52
2024/04/11 00:48:04;;;;;;;;;;;;;;;17.64;48.33;101330.47;5492973;26;1313;-53
2024/04/11 00:50:29;;;;;;;;;;;;;;;17.00;49.32;101339.94;5499571;26;1825;-50
2024/04/11 00:52:55;;;;;;;;;;;;;;;16.51;50.52;101347.47;5462436;26;1292;-49
2024/04/11 00:55:20;;;;;;;;;;;;;;;16.28;50.77;101349.78;5462574;26;1163;-49
2024/04/11 00:57:46;;;;;;;;;;;;;;;16.03;51.20;101348.66;5513763;26;1341;-50
2024/04/11 01:00:12;;;;;;;;;;;;;;;16.28;51.40;101347.13;5505608;26;1180;-52
2024/04/11 01:02:37;;;;;;;;;;;;;;;17.73;48.21;101347.63;5514198;26;1243;-50
2024/04/11 01:05:03;;;;;;;;;;;;;;;16.91;49.56;101349.38;5530482;26;1241;-54
2024/04/11 01:07:29;;;;;;;;;;;;;;;16.45;50.22;101343.41;5511313;26;1189;-56
2024/04/11 01:09:54;;;;;;;;;;;;;;;16.21;50.81;101344.00;5526609;26;1852;-53
2024/04/11 01:12:21;;;;;;;;;;;;;;;16.12;50.85;101349.84;5524427;26;1162;-53
2024/04/11 01:14:49;;;;;;;;;;;;;;;16.28;51.23;101352.44;5530123;26;1165;-56
2024/04/11 01:17:15;;;;;;;;;;;;;;;17.59;48.28;101345.88;5510579;26;1166;-53
2024/04/11 01:19:44;;;;;;;;;;;;;;;16.68;49.75;101349.06;5502300;26;1252;-54
2024/04/11 01:22:10;;;;;;;;;;;;;;;16.39;50.53;101349.97;5509456;26;1249;-54
2024/04/11 01:24:41;;;;;;;;;;;;;;;16.15;50.86;101347.00;5501450;26;1159;-52
2024/04/11 01:27:09;;;;;;;;;;;;;;;16.75;50.12;101346.84;5493991;26;1292;-53
2024/04/11 01:29:38;;;;;;;;;;;;;;;17.58;47.83;101345.03;5518514;26;1859;-51
2024/04/11 01:32:07;;;;;;;;;;;;;;;16.69;49.84;101345.44;5494393;26;1217;-48
2024/04/11 01:34:34;;;;;;;;;;;;;;;16.36;50.63;101349.28;5494073;26;1191;-50
2024/04/11 01:36:59;;;;;;;;;;;;;;;16.15;50.65;101347.00;5515075;26;1166;-49
2024/04/11 01:39:25;;;;;;;;;;;;;;;16.03;50.91;101353.94;5494390;26;1286;-48
2024/04/11 01:41:50;;;;;;;;;;;;;;;17.22;48.83;101358.03;5493986;26;1265;-51
2024/04/11 01:44:16;;;;;;;;;;;;;;;17.13;48.73;101350.69;5518121;26;1150;-51
2024/04/11 01:46:42;;;;;;;;;;;;;;;16.50;50.25;101345.75;5515966;26;1281;-53
2024/04/11 01:49:08;;;;;;;;;;;;;;;16.25;50.84;101355.25;5507806;26;1827;-52
2024/04/11 01:51:34;;;;;;;;;;;;;;;16.08;51.02;101357.16;5516802;26;1168;-52
2024/04/11 01:53:59;;;;;;;;;;;;;;;16.46;50.84;101357.53;5494871;26;1252;-51
2024/04/11 01:56:25;;;;;;;;;;;;;;;17.54;47.74;101353.31;5493586;26;1139;-53
2024/04/11 01:58:52;;;;;;;;;;;;;;;16.69;49.60;101364.06;5502551;26;1130;-53
2024/04/11 02:01:20;;;;;;;;;;;;;;;16.35;50.37;101356.41;5506900;26;1580;-52
2024/04/11 02:03:45;;;;;;;;;;;;;;;16.16;50.68;101359.34;5503997;26;1268;-52
2024/04/11 02:06:11;;;;;;;;;;;;;;;15.97;51.10;101365.75;5507110;26;1168;-51
2024/04/11 02:08:37;;;;;;;;;;;;;;;16.84;49.70;101362.22;5493601;26;1170;-52
2024/04/11 02:11:06;;;;;;;;;;;;;;;17.35;47.89;101357.22;5493227;26;1833;-50
2024/04/11 02:13:31;;;;;;;;;;;;;;;16.62;49.99;101357.41;5506267;26;1242;-52
2024/04/11 02:15:59;;;;;;;;;;;;;;;16.34;50.66;101362.66;5517756;26;1368;-55
2024/04/11 02:18:26;;;;;;;;;;;;;;;16.14;50.89;101366.53;5517701;26;1335;-51
2024/04/11 02:20:55;;;;;;;;;;;;;;;16.08;51.10;101367.75;5493552;26;1149;-52
2024/04/11 02:23:21;;;;;;;;;;;;;;;17.47;48.10;101359.06;5529845;26;1184;-50
2024/04/11 02:25:51;;;;;;;;;;;;;;;16.89;49.15;101367.22;5502055;26;1061;-50
2024/04/11 02:28:17;;;;;;;;;;;;;;;16.35;50.18;101368.84;5530076;26;1400;-51
2024/04/11 02:30:43;;;;;;;;;;;;;;;16.15;50.71;101363.78;5504541;26;1830;-48
2024/04/11 02:33:10;;;;;;;;;;;;;;;16.07;50.78;101365.19;5506722;26;1345;-50
2024/04/11 02:35:39;;;;;;;;;;;;;;;15.88;50.95;101372.44;5503460;26;1244;-52
2024/04/11 02:38:04;;;;;;;;;;;;;;;17.13;48.63;101374.59;5523729;26;975;-52
2024/04/11 02:40:30;;;;;;;;;;;;;;;17.46;47.51;101365.34;5505382;26;1190;-52
2024/04/11 02:42:55;;;;;;;;;;;;;;;16.69;49.30;101372.03;5514661;26;1214;-51
2024/04/11 02:45:21;;;;;;;;;;;;;;;16.38;50.25;101381.91;5496734;26;1215;-55
2024/04/11 02:47:47;;;;;;;;;;;;;;;16.13;50.54;101381.63;5512479;26;1261;-50
2024/04/11 02:50:15;;;;;;;;;;;;;;;15.98;50.88;101380.75;5499512;26;3060;-52
2024/04/11 02:52:43;;;;;;;;;;;;;;;17.05;48.68;101387.50;5478623;26;1487;-54
2024/04/11 02:55:10;;;;;;;;;;;;;;;17.32;48.20;101384.88;5497965;26;1223;-55
2024/04/11 02:57:36;;;;;;;;;;;;;;;16.64;49.33;101384.75;5526774;26;1228;-54
2024/04/11 03:00:03;;;;;;;;;;;;;;;16.32;50.48;101392.91;5501340;26;1226;-53
2024/04/11 03:02:30;;;;;;;;;;;;;;;16.10;50.72;101389.75;5501701;26;1090;-52
2024/04/11 03:04:56;;;;;;;;;;;;;;;15.96;51.01;101398.53;5523093;25;1922;-55
2024/04/11 03:07:22;;;;;;;;;;;;;;;17.42;47.99;101393.09;5528686;26;1474;-55
2024/04/11 03:09:48;;;;;;;;;;;;;;;17.02;48.49;101391.19;5473928;26;1868;-55
2024/04/11 03:12:14;;;;;;;;;;;;;;;16.47;50.15;101386.66;5512100;26;1208;-56
2024/04/11 03:14:39;;;;;;;;;;;;;;;16.18;50.49;101389.31;5530283;26;1211;-55
2024/04/11 03:17:05;;;;;;;;;;;;;;;16.05;50.77;101396.31;5532268;26;1348;-54
2024/04/11 03:19:31;;;;;;;;;;;;;;;16.90;49.22;101398.16;5532070;26;1452;-56
2024/04/11 03:21:56;;;;;;;;;;;;;;;17.47;47.64;101396.28;5532455;26;3014;-55
2024/04/11 03:24:22;;;;;;;;;;;;;;;16.72;49.79;101401.03;5531858;26;1368;-54
2024/04/11 03:26:47;;;;;;;;;;;;;;;16.34;50.29;101413.13;5517887;26;1240;-55
2024/04/11 03:29:15;;;;;;;;;;;;;;;16.16;50.72;101409.78;5531428;26;1838;-59
2024/04/11 03:31:42;;;;;;;;;;;;;;;16.06;50.87;101412.16;5509102;26;1217;-58
2024/04/11 03:34:08;;;;;;;;;;;;;;;15.89;51.02;101413.13;5505509;26;1253;-57
2024/04/11 03:36:33;;;;;;;;;;;;;;;16.84;49.63;101409.19;5508916;26;1130;-57
2024/04/11 03:38:59;;;;;;;;;;;;;;;17.57;47.46;101415.16;5525464;26;1134;-56
2024/04/11 03:41:26;;;;;;;;;;;;;;;16.64;49.90;101424.59;5518054;26;1501;-57
2024/04/11 03:43:55;;;;;;;;;;;;;;;16.32;50.51;101424.75;5513601;26;1264;-58
2024/04/11 03:46:21;;;;;;;;;;;;;;;16.14;50.77;101428.47;5498781;26;1221;-58
2024/04/11 03:48:51;;;;;;;;;;;;;;;15.97;51.20;101426.78;5528003;26;1816;-57
2024/04/11 03:51:20;;;;;;;;;;;;;;;16.60;50.26;101439.03;5509886;26;2681;-56
2024/04/11 03:53:46;;;;;;;;;;;;;;;17.49;47.94;101442.28;5511927;26;1498;-54
2024/04/11 03:56:14;;;;;;;;;;;;;;;16.65;49.67;101450.19;5532112;26;1197;-54
2024/04/11 03:58:40;;;;;;;;;;;;;;;16.32;50.54;101448.66;5530823;26;1192;-54
2024/04/11 04:01:12;;;;;;;;;;;;;;;16.15;50.92;101453.19;5475399;26;1198;-53
2024/04/11 04:03:40;;;;;;;;;;;;;;;15.95;51.21;101457.03;5517059;26;1136;-53
2024/04/11 04:06:06;;;;;;;;;;;;;;;16.58;50.54;101460.34;5506753;26;1366;-52
2024/04/11 04:08:33;;;;;;;;;;;;;;;16.72;49.77;101458.63;5506410;26;1362;-54
2024/04/11 04:10:59;;;;;;;;;;;;;;;15.67;50.97;101456.81;5530553;26;1853;-56
2024/04/11 04:13:26;;;;;;;;;;;;;;;15.40;50.51;101457.44;5506306;26;1224;-57
2024/04/11 04:15:58;;;;;;;;;;;;;;;16.17;51.40;101467.22;5531186;26;1276;-56
2024/04/11 04:18:23;;;;;;;;;;;;;;;15.89;51.03;101480.31;5505900;26;1272;-55
2024/04/11 04:20:55;;;;;;;;;;;;;;;16.17;51.94;101485.81;5515924;26;2994;-56
2024/04/11 04:23:21;;;;;;;;;;;;;;;17.41;48.72;101484.47;5522352;26;1194;-56
2024/04/11 04:25:53;;;;;;;;;;;;;;;16.10;50.44;101493.28;5522621;26;1322;-55
2024/04/11 04:28:19;;;;;;;;;;;;;;;16.08;51.24;101492.50;5530966;26;1130;-57
2024/04/11 04:30:44;;;;;;;;;;;;;;;16.22;50.65;101483.75;5505934;26;1826;-57
2024/04/11 04:33:11;;;;;;;;;;;;;;;15.72;50.26;101483.06;5530894;26;1130;-55
2024/04/11 04:35:36;;;;;;;;;;;;;;;15.95;51.00;101492.34;5530431;26;1146;-56
2024/04/11 04:38:02;;;;;;;;;;;;;;;16.88;49.53;101496.59;5514945;26;1153;-56
2024/04/11 04:40:27;;;;;;;;;;;;;;;15.98;50.25;101492.19;5504285;26;1252;-55
2024/04/11 04:42:53;;;;;;;;;;;;;;;15.67;49.54;101492.16;5517151;26;1236;-57
2024/04/11 04:45:21;;;;;;;;;;;;;;;15.49;48.89;101494.06;5496200;26;1209;-58
2024/04/11 04:47:47;;;;;;;;;;;;;;;16.95;49.40;101496.22;5515594;26;1348;-58
2024/04/11 04:50:13;;;;;;;;;;;;;;;15.98;49.88;101494.00;5503347;26;2856;-57
2024/04/11 04:52:38;;;;;;;;;;;;;;;15.65;49.35;101493.16;5508890;26;1232;-56
2024/04/11 04:55:04;;;;;;;;;;;;;;;15.46;48.61;101496.91;5529567;26;1232;-57
2024/04/11 04:57:31;;;;;;;;;;;;;;;15.30;48.24;101505.69;5515923;26;1340;-59
2024/04/11 04:59:57;;;;;;;;;;;;;;;16.67;48.95;101503.22;5502386;26;1189;-57
2024/04/11 05:02:26;;;;;;;;;;;;;;;15.67;49.76;101504.56;5511618;26;1044;-56
2024/04/11 05:04:51;;;;;;;;;;;;;;;15.51;48.60;101508.09;5518182;26;1135;-55
2024/04/11 05:07:17;;;;;;;;;;;;;;;16.74;49.00;101512.53;5493578;26;1433;-56
2024/04/11 05:09:46;;;;;;;;;;;;;;;15.76;49.81;101511.16;5493693;26;1830;-55
2024/04/11 05:12:11;;;;;;;;;;;;;;;15.55;49.01;101517.56;5509712;26;1146;-54
2024/04/11 05:14:39;;;;;;;;;;;;;;;15.77;49.64;101512.84;5513939;26;1511;-57
2024/04/11 05:17:08;;;;;;;;;;;;;;;16.25;49.46;101517.19;5508738;26;1618;-58
2024/04/11 05:19:34;;;;;;;;;;;;;;;15.73;49.40;101513.97;5526622;26;1101;-55
2024/04/11 05:22:00;;;;;;;;;;;;;;;15.39;49.07;101512.28;5509728;26;1205;-56
2024/04/11 05:24:26;;;;;;;;;;;;;;;16.72;49.30;101520.59;5504929;26;1247;-57
2024/04/11 05:26:51;;;;;;;;;;;;;;;16.22;49.32;101510.28;5523758;26;1057;-57
2024/04/11 05:29:17;;;;;;;;;;;;;;;15.79;48.81;101521.56;5503993;26;1866;-55
2024/04/11 05:31:42;;;;;;;;;;;;;;;16.84;48.73;101520.78;5511917;26;1122;-55
2024/04/11 05:34:13;;;;;;;;;;;;;;;15.94;49.62;101521.63;5495569;26;1141;-57
2024/04/11 05:36:39;;;;;;;;;;;;;;;15.62;48.74;101523.41;5481419;26;1241;-58
2024/04/11 05:39:05;;;;;;;;;;;;;;;17.23;48.58;101531.72;5494401;26;1117;-55
2024/04/11 05:41:30;;;;;;;;;;;;;;;16.11;49.50;101524.22;5492713;26;1154;-53
2024/04/11 05:43:58;;;;;;;;;;;;;;;15.78;49.09;101535.78;5508458;26;1232;-56
2024/04/11 05:46:24;;;;;;;;;;;;;;;15.70;47.93;101541.50;5517907;26;1249;-50
2024/04/11 05:48:50;;;;;;;;;;;;;;;15.58;47.60;101544.88;5513317;26;1829;-51
2024/04/11 05:51:19;;;;;;;;;;;;;;;17.03;48.31;101547.09;5529889;26;1130;-51
2024/04/11 05:53:45;;;;;;;;;;;;;;;16.02;49.39;101549.47;5510081;26;1108;-51
2024/04/11 05:56:11;;;;;;;;;;;;;;;15.82;48.38;101557.69;5493547;26;1131;-49
2024/04/11 05:58:40;;;;;;;;;;;;;;;16.95;48.60;101562.66;5509119;26;1337;-51
2024/04/11 06:01:05;;;;;;;;;;;;;;;16.07;49.23;101556.28;5517417;26;1282;-48
2024/04/11 06:03:40;;;;;;;;;;;;;;;15.81;48.49;101559.50;5505902;26;1161;-52
2024/04/11 06:06:06;;;;;;;;;;;;;;;15.67;47.92;101558.47;5505459;26;1232;-54
2024/04/11 06:08:31;;;;;;;;;;;;;;;16.53;48.71;101564.22;5515850;26;1173;-53
2024/04/11 06:10:57;;;;;;;;;;;;;;;16.12;48.86;101568.38;5493223;26;1826;-49
2024/04/11 06:13:22;;;;;;;;;;;;;;;15.84;49.37;101563.75;5493235;26;1142;-50
2024/04/11 06:15:48;;;;;;;;;;;;;;;17.04;47.91;101564.75;5493344;26;1092;-53
2024/04/11 06:18:15;;;;;;;;;;;;;;;16.07;49.22;101567.78;5507142;26;1332;-50
2024/04/11 06:20:41;;;;;;;;;;;;;;;15.87;48.60;101560.94;5504010;26;1243;-50
2024/04/11 06:23:09;;;;;;;;;;;;;;;16.76;48.31;101577.06;5506687;26;1216;-53
2024/04/11 06:25:38;;;;;;;;;;;;;;;16.01;48.98;101563.69;5527683;26;1208;-55
2024/04/11 06:28:04;;;;;;;;;;;;;;;16.05;48.94;101572.31;5508938;26;1065;-53
2024/04/11 06:30:30;;;;;;;;;;;;;;;16.61;48.52;101571.75;5528913;26;1824;-48
2024/04/11 06:32:58;;;;;;;;;;;;;;;16.06;48.66;101579.34;5529835;26;1121;-54
2024/04/11 06:35:25;;;;;;;;;;;;;;;15.77;48.44;101577.38;5525786;26;1126;-57
2024/04/11 06:37:51;;;;;;;;;;;;;;;17.15;47.74;101582.72;5504070;26;1045;-55
2024/04/11 06:40:16;;;;;;;;;;;;;;;16.11;48.93;101579.09;5493233;26;1118;-52
2024/04/11 06:42:46;;;;;;;;;;;;;;;15.83;48.58;101583.28;5528169;26;1174;-52
2024/04/11 06:45:15;;;;;;;;;;;;;;;15.71;48.03;101582.16;5498323;26;1296;-53
2024/04/11 06:47:41;;;;;;;;;;;;;;;15.67;47.38;101578.81;5493000;26;1238;-52
2024/04/11 06:50:07;;;;;;;;;;;;;;;16.89;47.91;101588.66;5518254;26;1852;-54
2024/04/11 06:52:32;;;;;;;;;;;;;;;15.98;48.45;101577.13;5509804;26;1226;-57
2024/04/11 06:54:58;;;;;;;;;;;;;;;15.98;48.72;101576.25;5499360;26;1114;-49
2024/04/11 06:57:26;;;;;;;;;;;;;;;16.95;47.56;101581.28;5510226;26;1286;-56
2024/04/11 06:59:52;;;;;;;;;;;;;;;16.09;48.86;101578.31;5516836;26;1250;-51
2024/04/11 07:02:17;;;;;;;;;;;;;;;15.92;48.22;101580.09;5512554;26;1230;-54
2024/04/11 07:04:44;;;;;;;;;;;;;;;15.67;48.13;101577.03;5504627;26;1241;-55
2024/04/11 07:07:09;;;;;;;;;;;;;;;15.69;47.29;101590.22;5528572;26;1157;-57
2024/04/11 07:09:37;;;;;;;;;;;;;;;15.51;47.34;101584.13;5520506;26;1875;-54
2024/04/11 07:12:28;;;;;;;;;;;;;;;16.87;47.90;101589.69;5492766;26;1319;-55
2024/04/11 07:14:57;;;;;;;;;;;;;;;16.08;48.94;101581.91;5492177;26;1173;-54
2024/04/11 07:17:27;;;;;;;;;;;;;;;15.86;48.33;101578.66;5492315;26;1219;-55
2024/04/11 07:19:54;;;;;;;;;;;;;;;15.79;48.42;101588.78;5492333;26;1171;-53
2024/04/11 07:22:24;;;;;;;;;;;;;;;16.80;48.09;101583.06;5492388;26;1280;-53
2024/04/11 07:24:49;;;;;;;;;;;;;;;16.09;48.43;101588.94;5492515;26;803;-54
2024/04/11 07:27:17;;;;;;;;;;;;;;;17.38;47.71;101591.91;5492006;26;1291;-56
2024/04/11 07:29:45;;;;;;;;;;;;;;;16.53;48.84;101587.28;5477580;26;1834;-54
2024/04/11 07:32:11;;;;;;;;;;;;;;;16.01;48.86;101576.09;5498184;26;1168;-58
2024/04/11 07:34:37;;;;;;;;;;;;;;;15.88;48.33;101582.06;5491826;26;1180;-54
2024/04/11 07:37:02;;;;;;;;;;;;;;;15.87;47.71;101574.19;5516355;26;1573;-56
2024/04/11 07:39:29;;;;;;;;;;;;;;;15.73;47.35;101578.47;5505146;26;1241;-56
2024/04/11 07:42:18;;;;;;;;;;;;;;;16.36;48.08;101578.50;5504594;26;1161;-55
2024/04/11 07:44:44;;;;;;;;;;;;;;;16.42;48.51;101574.63;5459179;26;1298;-55
2024/04/11 07:47:10;;;;;;;;;;;;;;;15.96;48.62;101580.78;5510099;26;1159;-54
2024/04/11 07:49:37;;;;;;;;;;;;;;;15.74;48.21;101576.69;5491571;26;1870;-56
2024/04/11 07:52:02;;;;;;;;;;;;;;;15.69;47.73;101561.03;5491518;26;1159;-55
2024/04/11 07:54:29;;;;;;;;;;;;;;;16.61;47.86;101557.59;5491788;26;1190;-56
2024/04/11 07:56:55;;;;;;;;;;;;;;;15.95;48.43;101564.00;5492187;26;1163;-54
2024/04/11 07:59:22;;;;;;;;;;;;;;;15.81;48.14;101564.81;5495766;26;1393;-55
2024/04/11 08:01:47;;;;;;;;;;;;;;;16.30;48.65;101570.06;5495125;26;1291;-55
2024/04/11 08:04:13;;;;;;;;;;;;;;;16.48;48.39;101552.19;5495216;26;1377;-54
2024/04/11 08:06:39;;;;;;;;;;;;;;;16.08;48.71;101558.88;5494792;26;1289;-55
2024/04/11 08:09:06;;;;;;;;;;;;;;;16.77;48.48;101542.44;5506992;26;1862;-53
2024/04/11 08:11:32;;;;;;;;;;;;;;;16.47;48.38;101564.59;5531561;26;1290;-52
2024/04/11 08:13:57;;;;;;;;;;;;;;;16.06;48.48;101554.59;5495200;26;1162;-53
2024/04/11 08:16:23;;;;;;;;;;;;;;;16.50;48.97;101561.75;5495371;26;995;-52
2024/04/11 08:18:49;;;;;;;;;;;;;;;16.60;48.41;101563.88;5519697;26;1434;-54
2024/04/11 08:21:16;;;;;;;;;;;;;;;16.16;48.48;101561.94;5494896;26;1264;-53
2024/04/11 08:23:45;;;;;;;;;;;;;;;16.12;47.78;101549.78;5494945;26;1255;-53
2024/04/11 08:26:12;;;;;;;;;;;;;;;16.58;48.48;101563.09;5494425;26;1269;-53
2024/04/11 08:28:38;;;;;;;;;;;;;;;16.50;48.74;101558.22;5507887;26;1041;-53
2024/04/11 08:31:07;;;;;;;;;;;;;;;16.09;48.46;101562.38;5505597;26;1825;-53
2024/04/11 08:33:33;;;;;;;;;;;;;;;15.96;48.24;101563.06;5494867;26;1202;-54
2024/04/11 08:35:59;;;;;;;;;;;;;;;16.72;48.04;101564.91;5494332;26;1257;-53
2024/04/11 08:38:24;;;;;;;;;;;;;;;16.04;48.83;101560.00;5495093;26;1097;-54
2024/04/11 08:40:50;;;;;;;;;;;;;;;16.00;48.25;101558.44;5519086;26;1299;-55
2024/04/11 08:43:27;;;;;;;;;;;;;;;15.93;47.62;101557.94;5514563;26;1237;-56
2024/04/11 08:45:52;;;;;;;;;;;;;;;15.76;47.39;101556.25;5500746;26;1305;-54
2024/04/11 08:48:18;;;;;;;;;;;;;;;15.70;47.35;101556.59;5508120;26;1256;-54
2024/04/11 08:50:47;;;;;;;;;;;;;;;16.69;47.77;101563.31;5494030;26;1867;-55
2024/04/11 08:53:14;;;;;;;;;;;;;;;16.07;48.38;101559.81;5494798;26;1120;-53
2024/04/11 08:55:40;;;;;;;;;;;;;;;15.96;47.84;101560.41;5519004;26;1257;-51
2024/04/11 08:58:07;;;;;;;;;;;;;;;15.74;47.79;101552.81;5517408;26;1123;-50
2024/04/11 09:00:32;;;;;;;;;;;;;;;16.95;47.40;101555.53;5507101;26;1268;-54
2024/04/11 09:02:58;;;;;;;;;;;;;;;16.10;48.45;101564.94;5499028;26;1312;-52
2024/04/11 09:05:24;;;;;;;;;;;;;;;15.91;48.07;101562.47;5494980;26;1389;-55
2024/04/11 09:07:51;;;;;;;;;;;;;;;15.83;47.58;101556.75;5493825;26;1153;-55
2024/04/11 09:10:18;;;;;;;;;;;;;;;17.09;47.39;101559.16;5494352;26;1868;-54
2024/04/11 09:12:46;;;;;;;;;;;;;;;16.26;48.60;101559.63;5494276;26;1159;-54
2024/04/11 09:15:15;;;;;;;;;;;;;;;15.99;48.25;101562.94;5494215;26;1160;-55
2024/04/11 09:17:43;;;;;;;;;;;;;;;15.84;48.01;101561.09;5494176;26;1190;-56
2024/04/11 09:20:12;;;;;;;;;;;;;;;15.72;47.99;101566.16;5493993;26;1276;-55
2024/04/11 09:22:47;;;;;;;;;;;;;;;17.10;47.33;101563.56;5494554;26;1164;-55
2024/04/11 09:25:13;;;;;;;;;;;;;;;16.17;48.54;101562.78;5511230;26;1276;-57
2024/04/11 09:27:42;;;;;;;;;;;;;;;15.95;48.53;101564.00;5501436;26;1193;-57
2024/04/11 09:30:08;;;;;;;;;;;;;;;15.92;47.88;101561.53;5463447;26;1816;-56
2024/04/11 09:32:39;;;;;;;;;;;;;;;15.89;47.52;101559.03;5491227;26;1237;-55
2024/04/11 09:35:05;;;;;;;;;;;;;;;15.75;47.56;101558.03;5480223;26;1172;-56
2024/04/11 09:37:32;;;;;;;;;;;;;;;16.75;47.89;101578.00;5518495;26;1189;-56
2024/04/11 09:39:57;;;;;;;;;;;;;;;16.08;48.44;101568.66;5462042;26;1294;-58
2024/04/11 09:42:26;;;;;;;;;;;;;;;15.77;48.22;101585.34;5486398;26;1194;-55
2024/04/11 09:44:52;;;;;;;;;;;;;;;15.73;47.96;101585.59;5529863;25;1140;-56
2024/04/11 09:47:19;;;;;;;;;;;;;;;15.66;47.34;101585.09;5510588;25;1109;-56
2024/04/11 09:49:54;;;;;;;;;;;;;;;15.50;47.64;101577.97;5510516;26;1855;-59
2024/04/11 09:52:26;;;;;;;;;;;;;;;16.02;48.07;101583.13;5497153;26;1266;-55
2024/04/11 09:54:51;;;;;;;;;;;;;;;16.46;47.80;101577.97;5506912;26;1264;-55
2024/04/11 09:57:18;;;;;;;;;;;;;;;15.89;48.29;101570.53;5518304;26;1167;-51
2024/04/11 09:59:43;;;;;;;;;;;;;;;15.79;47.95;101586.13;5485906;26;1134;-55
2024/04/11 10:02:09;;;;;;;;;;;;;;;15.74;47.42;101579.34;5485942;26;1068;-53
2024/04/11 10:04:36;;;;;;;;;;;;;;;17.01;47.39;101583.53;5493355;26;1355;-57
2024/04/11 10:07:08;;;;;;;;;;;;;;;16.11;48.25;101581.75;5493481;26;1214;-55
2024/04/11 10:09:34;;;;;;;;;;;;;;;15.82;48.14;101577.13;5517925;26;1832;-55
2024/04/11 10:12:01;;;;;;;;;;;;;;;16.71;47.53;101587.13;5493234;26;1131;-56
2024/04/11 10:14:28;;;;;;;;;;;;;;;16.03;48.21;101585.69;5493654;26;1127;-53
2024/04/11 10:17:01;;;;;;;;;;;;;;;15.85;47.95;101592.03;5493641;26;1060;-52
2024/04/11 10:19:27;;;;;;;;;;;;;;;16.97;47.21;101593.50;5507942;26;1300;-52
2024/04/11 10:21:55;;;;;;;;;;;;;;;16.15;48.30;101585.91;5499996;26;1292;-54
2024/04/11 10:24:27;;;;;;;;;;;;;;;15.93;48.11;101581.81;5510250;26;1114;-55
2024/04/11 10:26:54;;;;;;;;;;;;;;;15.93;48.47;101591.56;5493435;26;1307;-53
2024/04/11 10:29:20;;;;;;;;;;;;;;;16.51;48.11;101599.78;5493260;26;1830;-54
2024/04/11 10:31:47;;;;;;;;;;;;;;;16.02;48.34;101580.47;5517970;26;1117;-51
2024/04/11 10:34:19;;;;;;;;;;;;;;;15.94;47.72;101585.31;5492926;26;1283;-50
2024/04/11 10:36:54;;;;;;;;;;;;;;;15.71;47.81;101583.03;5493202;26;1250;-54
2024/04/11 10:39:23;;;;;;;;;;;;;;;16.67;47.67;101594.41;5470763;26;1277;-54
2024/04/11 10:41:51;;;;;;;;;;;;;;;16.10;47.99;101578.22;5505790;26;1125;-52
2024/04/11 10:44:17;;;;;;;;;;;;;;;16.08;48.38;101580.09;5492698;26;1184;-50
2024/04/11 10:46:44;;;;;;;;;;;;;;;16.80;47.98;101577.75;5515948;26;1174;-53
2024/04/11 10:49:15;;;;;;;;;;;;;;;16.16;48.52;101580.50;5504708;26;1846;-51
2024/04/11 10:51:47;;;;;;;;;;;;;;;15.98;48.10;101579.78;5504344;26;1142;-50
2024/04/11 10:54:12;;;;;;;;;;;;;;;15.83;47.80;101581.47;5507719;26;1523;-51
2024/04/11 10:56:41;;;;;;;;;;;;;;;15.80;47.43;101573.69;5502733;26;1183;-52
2024/04/11 10:59:12;;;;;;;;;;;;;;;15.85;47.54;101576.94;5507710;26;1319;-52
2024/04/11 11:01:38;;;;;;;;;;;;;;;16.49;47.52;101581.28;5500717;26;1336;-49
2024/04/11 11:04:06;;;;;;;;;;;;;;;16.05;47.97;101577.63;5507419;26;1174;-49
2024/04/11 11:06:39;;;;;;;;;;;;;;;15.81;47.81;101580.72;5500633;26;1172;-52
2024/04/11 11:09:12;;;;;;;;;;;;;;;16.86;48.30;101578.22;5492494;26;1830;-50
2024/04/11 11:11:41;;;;;;;;;;;;;;;16.23;48.15;101570.38;5492428;26;1298;-52
2024/04/11 11:14:10;;;;;;;;;;;;;;;16.02;47.86;101576.00;5492388;26;1106;-53
2024/04/11 11:16:37;;;;;;;;;;;;;;;15.85;47.39;101582.25;5516848;26;1188;-53
2024/04/11 11:19:11;;;;;;;;;;;;;;;16.80;47.88;101593.69;5492074;26;1127;-52
2024/04/11 11:21:40;;;;;;;;;;;;;;;16.27;48.48;101587.00;5492079;26;1372;-54
2024/04/11 11:24:13;;;;;;;;;;;;;;;15.93;48.16;101588.91;5492518;26;1246;-49
2024/04/11 11:26:43;;;;;;;;;;;;;;;15.84;47.69;101580.53;5492198;26;1257;-53
2024/04/11 11:29:09;;;;;;;;;;;;;;;15.76;47.32;101580.97;5492089;26;1867;-51
2024/04/11 11:31:38;;;;;;;;;;;;;;;16.82;47.30;101592.63;5493762;26;1158;-54
2024/04/11 11:34:09;;;;;;;;;;;;;;;16.06;48.42;101589.97;5499504;26;1174;-53
2024/04/11 11:36:38;;;;;;;;;;;;;;;17.32;47.95;101584.31;5515191;26;1150;-53
2024/04/11 11:39:17;;;;;;;;;;;;;;;16.62;48.44;101588.53;5495948;26;1216;-53
2024/04/11 11:41:49;;;;;;;;;;;;;;;16.25;48.57;101576.47;5495679;26;1018;-54
2024/04/11 11:44:18;;;;;;;;;;;;;;;15.97;47.81;101579.84;5530122;26;1165;-55
2024/04/11 11:46:50;;;;;;;;;;;;;;;15.96;46.98;101573.69;5509553;26;1198;-54
2024/04/11 11:49:18;;;;;;;;;;;;;;;17.24;47.90;101582.16;5495267;26;1861;-54
2024/04/11 11:51:47;;;;;;;;;;;;;;;16.35;48.36;101579.44;5463336;26;1184;-51
2024/04/11 11:54:12;;;;;;;;;;;;;;;16.00;48.21;101583.19;5495285;26;1042;-55
2024/04/11 11:56:46;;;;;;;;;;;;;;;15.90;47.58;101569.56;5495382;26;1293;-52
2024/04/11 11:59:12;;;;;;;;;;;;;;;17.01;47.72;101564.94;5511189;26;1213;-57
2024/04/11 12:01:51;;;;;;;;;;;;;;;16.21;48.56;101574.09;5504631;26;1154;-54
2024/04/11 12:04:16;;;;;;;;;;;;;;;16.05;47.90;101560.88;5513847;26;1210;-54
2024/04/11 12:06:44;;;;;;;;;;;;;;;17.07;47.61;101567.22;5500046;26;1089;-57
2024/04/11 12:09:10;;;;;;;;;;;;;;;16.25;48.41;101552.56;5513886;26;1832;-54
2024/04/11 12:12:07;;;;;;;;;;;;;;;16.02;48.29;101545.97;5506925;26;1253;-54
2024/04/11 12:14:34;;;;;;;;;;;;;;;15.96;47.35;101549.81;5505229;26;1202;-52
2024/04/11 12:17:05;;;;;;;;;;;;;;;15.85;47.17;101539.78;5495318;26;1311;-49
2024/04/11 12:19:31;;;;;;;;;;;;;;;15.82;47.04;101547.06;5498289;26;1234;-53
2024/04/11 12:22:06;;;;;;;;;;;;;;;17.16;47.70;101547.22;5532030;26;1237;-51
2024/04/11 12:24:31;;;;;;;;;;;;;;;16.24;48.27;101547.34;5500540;26;1273;-53
2024/04/11 12:26:59;;;;;;;;;;;;;;;15.98;48.07;101545.28;5495025;26;1133;-50
2024/04/11 12:29:25;;;;;;;;;;;;;;;16.71;48.41;101550.78;5495004;26;1868;-46
2024/04/11 12:31:51;;;;;;;;;;;;;;;16.32;48.15;101542.44;5513156;26;1177;-44
2024/04/11 12:34:16;;;;;;;;;;;;;;;16.03;48.61;101540.56;5500260;26;1250;-48
2024/04/11 12:36:57;;;;;;;;;;;;;;;17.01;48.13;101539.22;5494832;26;1220;-50
2024/04/11 12:39:32;;;;;;;;;;;;;;;16.21;48.78;101543.09;5494597;26;1296;-50
2024/04/11 12:42:00;;;;;;;;;;;;;;;16.02;48.40;101541.50;5494746;26;1177;-51
2024/04/11 12:44:30;;;;;;;;;;;;;;;15.99;47.77;101541.69;5493432;26;1336;-47
2024/04/11 12:46:57;;;;;;;;;;;;;;;15.89;47.24;101536.03;5494472;26;1162;-49
2024/04/11 12:49:29;;;;;;;;;;;;;;;17.24;48.04;101536.94;5494514;26;1871;-50